createdAt,value
2018-11-27T00:00:53.481Z,42.90
2018-11-27T00:03:20.891Z,43.23
2018-11-27T00:05:48.520Z,39.70
2018-11-27T00:08:15.937Z,40.27
2018-11-27T00:10:43.323Z,41.07
2018-11-27T00:13:10.698Z,41.93
2018-11-27T00:15:38.089Z,39.40
2018-11-27T00:18:05.554Z,36.40
2018-11-27T00:20:32.960Z,35.13
2018-11-27T00:23:00.302Z,31.93
2018-11-27T00:25:28.204Z,33.73
2018-11-27T00:27:55.862Z,33.10
2018-11-27T00:30:23.218Z,33.70
2018-11-27T00:32:50.607Z,34.30
2018-11-27T00:35:18.996Z,30.03
2018-11-27T00:37:46.367Z,31.10
2018-11-27T00:40:14.401Z,35.63
2018-11-27T00:42:42.096Z,34.70
2018-11-27T00:45:10.096Z,38.60
2018-11-27T00:47:37.466Z,35.13
2018-11-27T00:50:07.186Z,34.97
2018-11-27T00:52:34.567Z,33.23
2018-11-27T00:55:02.008Z,40.70
2018-11-27T00:57:29.397Z,36.50
2018-11-27T00:59:56.742Z,38.47
2018-11-27T01:02:24.088Z,35.60
2018-11-27T01:04:51.437Z,38.73
2018-11-27T01:07:18.777Z,37.00
2018-11-27T01:09:46.568Z,42.47
2018-11-27T01:12:13.950Z,36.30
2018-11-27T01:14:41.272Z,37.13
2018-11-27T01:17:08.697Z,39.40
2018-11-27T01:19:36.088Z,38.33
2018-11-27T01:22:03.487Z,40.90
2018-11-27T01:24:30.821Z,42.50
2018-11-27T01:26:58.208Z,44.00
2018-11-27T01:29:25.528Z,42.60
2018-11-27T01:34:36.653Z,51.23
2018-11-27T01:37:04.060Z,45.27
2018-11-27T01:39:31.399Z,45.37
2018-11-27T01:41:58.782Z,37.77
2018-11-27T01:44:26.142Z,44.50
2018-11-27T01:46:53.497Z,43.63
2018-11-27T01:49:20.954Z,51.60
2018-11-27T01:51:48.669Z,46.67
2018-11-27T01:54:16.003Z,48.13
2018-11-27T01:56:43.373Z,43.73
2018-11-27T01:59:10.715Z,46.90
2018-11-27T02:01:38.120Z,42.87
2018-11-27T02:04:05.988Z,48.00
2018-11-27T02:06:33.343Z,51.77
2018-11-27T02:09:00.641Z,43.33
2018-11-27T02:11:27.961Z,49.03
2018-11-27T02:13:55.315Z,53.10
2018-11-27T02:16:22.865Z,47.97
2018-11-27T02:18:50.170Z,50.63
2018-11-27T02:21:17.510Z,45.67
2018-11-27T02:23:44.876Z,45.37
2018-11-27T02:26:12.651Z,49.53
2018-11-27T02:28:40.215Z,49.87
2018-11-27T02:31:07.631Z,49.40
2018-11-27T02:33:34.955Z,49.10
2018-11-27T02:36:02.255Z,44.83
2018-11-27T02:38:29.644Z,47.30
2018-11-27T02:40:56.935Z,49.57
2018-11-27T02:43:24.441Z,44.43
2018-11-27T02:45:51.758Z,45.70
2018-11-27T02:48:19.183Z,46.13
2018-11-27T02:50:46.456Z,48.30
2018-11-27T02:53:13.779Z,48.13
2018-11-27T02:55:41.151Z,48.20
2018-11-27T02:58:08.528Z,51.90
2018-11-27T03:00:35.863Z,46.33
2018-11-27T03:03:03.324Z,43.73
2018-11-27T03:05:32.174Z,45.97
2018-11-27T03:07:59.558Z,41.80
2018-11-27T03:10:26.971Z,47.57
2018-11-27T03:12:54.287Z,49.00
2018-11-27T03:15:21.616Z,43.80
2018-11-27T03:17:48.975Z,47.03
2018-11-27T03:20:17.164Z,49.73
2018-11-27T03:22:44.537Z,43.27
2018-11-27T03:25:13.320Z,46.73
2018-11-27T03:27:40.696Z,43.97
2018-11-27T03:30:11.030Z,43.27
2018-11-27T03:32:38.539Z,42.57
2018-11-27T03:35:07.023Z,42.67
2018-11-27T03:37:34.405Z,47.73
2018-11-27T03:40:01.815Z,48.40
2018-11-27T03:42:29.455Z,47.03
2018-11-27T03:44:56.848Z,45.03
2018-11-27T03:47:24.333Z,45.47
2018-11-27T03:49:52.750Z,39.87
2018-11-27T03:52:20.164Z,44.37
2018-11-27T03:54:47.575Z,39.00
2018-11-27T03:57:14.905Z,44.23
2018-11-27T04:05:33.333Z,38.70
2018-11-27T04:08:00.702Z,40.83
2018-11-27T04:10:28.108Z,37.87
2018-11-27T04:12:55.526Z,42.60
2018-11-27T04:15:23.143Z,39.37
2018-11-27T04:17:50.536Z,37.80
2018-11-27T04:20:17.890Z,35.37
2018-11-27T04:22:45.351Z,41.10
2018-11-27T04:25:15.812Z,38.10
2018-11-27T04:27:44.342Z,36.80
2018-11-27T04:30:19.405Z,43.23
2018-11-27T04:32:46.895Z,41.77
2018-11-27T04:35:14.818Z,38.33
2018-11-27T04:37:42.164Z,42.60
2018-11-27T04:40:11.048Z,34.93
2018-11-27T04:42:38.386Z,36.50
2018-11-27T04:45:07.686Z,39.63
2018-11-27T04:47:35.063Z,39.90
2018-11-27T04:50:07.753Z,32.80
2018-11-27T04:52:35.280Z,39.63
2018-11-27T04:55:02.609Z,37.13
2018-11-27T04:57:29.991Z,35.37
2018-11-27T04:59:57.424Z,34.40
2018-11-27T05:02:24.796Z,34.37
2018-11-27T05:04:52.287Z,38.07
2018-11-27T05:07:19.604Z,36.77
2018-11-27T05:09:46.948Z,41.47
2018-11-27T05:12:14.288Z,33.70
2018-11-27T05:14:41.621Z,39.10
2018-11-27T05:17:08.949Z,34.10
2018-11-27T05:19:36.372Z,36.60
2018-11-27T05:22:04.416Z,37.90
2018-11-27T05:24:32.163Z,34.43
2018-11-27T05:26:59.537Z,34.13
2018-11-27T05:29:26.885Z,31.63
2018-11-27T05:31:54.691Z,33.17
2018-11-27T05:34:22.071Z,31.50
2018-11-27T05:36:49.448Z,33.97
2018-11-27T05:39:16.839Z,30.60
2018-11-27T05:41:44.174Z,33.90
2018-11-27T05:44:11.599Z,35.07
2018-11-27T05:46:39.034Z,40.10
2018-11-27T05:49:06.491Z,33.40
2018-11-27T05:51:36.002Z,35.53
2018-11-27T05:54:03.459Z,36.37
2018-11-27T05:56:30.883Z,35.60
2018-11-27T05:58:58.344Z,34.50
2018-11-27T06:01:25.720Z,31.40
2018-11-27T06:03:53.102Z,39.37
2018-11-27T06:06:20.438Z,39.57
2018-11-27T06:08:48.273Z,38.13
2018-11-27T06:11:15.683Z,33.17
2018-11-27T06:13:43.104Z,36.77
2018-11-27T06:16:10.418Z,35.17
2018-11-27T06:18:37.775Z,36.83
2018-11-27T06:21:05.723Z,37.03
2018-11-27T06:23:33.087Z,42.63
2018-11-27T06:26:00.430Z,43.03
2018-11-27T06:28:27.808Z,37.50
2018-11-27T06:30:55.122Z,38.73
2018-11-27T06:33:22.502Z,35.73
2018-11-27T06:35:49.843Z,36.17
2018-11-27T06:38:17.287Z,35.30
2018-11-27T06:40:44.703Z,40.13
2018-11-27T06:43:12.436Z,39.73
2018-11-27T06:45:40.251Z,38.90
2018-11-27T06:48:08.196Z,40.10
2018-11-27T06:50:35.590Z,43.43
2018-11-27T06:53:03.009Z,41.43
2018-11-27T06:55:30.351Z,44.47
2018-11-27T06:57:57.724Z,41.47
2018-11-27T07:00:25.733Z,42.23
2018-11-27T07:02:53.330Z,41.00
2018-11-27T07:05:20.740Z,44.40
2018-11-27T07:07:48.204Z,37.87
2018-11-27T07:10:19.141Z,41.23
2018-11-27T07:12:47.015Z,40.93
2018-11-27T07:15:16.102Z,46.77
2018-11-27T07:17:43.556Z,43.87
2018-11-27T07:20:12.420Z,47.40
2018-11-27T07:22:39.853Z,38.70
2018-11-27T07:25:09.217Z,44.17
2018-11-27T07:27:35.935Z,36.87
2018-11-27T07:30:03.421Z,47.73
2018-11-27T07:32:31.416Z,42.67
2018-11-27T07:34:59.066Z,43.90
2018-11-27T07:37:28.098Z,42.70
2018-11-27T07:39:55.576Z,42.37
2018-11-27T07:42:23.076Z,44.50
2018-11-27T07:44:50.701Z,41.80
2018-11-27T07:47:18.116Z,41.70
2018-11-27T07:49:45.643Z,43.17
2018-11-27T07:52:13.644Z,39.60
2018-11-27T07:54:41.258Z,34.63
2018-11-27T07:57:08.747Z,37.70
2018-11-27T07:59:36.176Z,33.40
2018-11-27T08:02:03.574Z,38.83
2018-11-27T08:04:31.151Z,33.27
2018-11-27T08:06:58.596Z,33.20
2018-11-27T08:09:27.139Z,34.17
2018-11-27T08:11:53.890Z,33.97
2018-11-27T08:14:21.269Z,32.70
2018-11-27T08:16:48.637Z,33.83
2018-11-27T08:19:16.028Z,34.27
2018-11-27T08:21:43.442Z,33.20
2018-11-27T08:24:10.813Z,30.37
2018-11-27T08:26:38.325Z,32.33
2018-11-27T08:29:05.862Z,33.27
2018-11-27T08:31:33.347Z,34.53
2018-11-27T08:34:00.918Z,31.33
2018-11-27T08:36:30.617Z,33.67
2018-11-27T08:38:58.040Z,29.37
2018-11-27T08:41:25.473Z,29.23
2018-11-27T08:43:52.887Z,32.17
2018-11-27T08:46:20.407Z,30.90
2018-11-27T08:48:47.785Z,29.50
2018-11-27T08:51:15.231Z,31.80
2018-11-27T08:53:42.634Z,34.50
2018-11-27T08:56:10.024Z,33.33
2018-11-27T08:58:37.618Z,31.40
2018-11-27T09:01:05.121Z,32.47
2018-11-27T09:03:32.529Z,36.07
2018-11-27T09:05:59.948Z,33.27
2018-11-27T09:08:27.463Z,33.37
2018-11-27T09:10:54.929Z,31.83
2018-11-27T09:13:22.311Z,30.13
2018-11-27T09:15:49.672Z,31.13
2018-11-27T09:18:18.876Z,33.70
2018-11-27T09:20:46.375Z,33.07
2018-11-27T09:23:13.827Z,31.47
2018-11-27T09:25:41.219Z,27.83
2018-11-27T09:28:08.699Z,32.53
2018-11-27T09:30:36.080Z,30.60
2018-11-27T09:33:03.488Z,31.90
2018-11-27T09:35:31.051Z,30.43
2018-11-27T09:37:59.606Z,28.90
2018-11-27T09:40:26.963Z,29.27
2018-11-27T09:42:54.745Z,29.07
2018-11-27T09:45:22.691Z,29.80
2018-11-27T09:47:51.661Z,28.60
2018-11-27T09:50:19.130Z,26.63
2018-11-27T09:52:46.570Z,29.97
2018-11-27T09:55:16.596Z,27.60
2018-11-27T09:57:44.071Z,26.30
2018-11-27T10:00:17.910Z,26.20
2018-11-27T10:02:45.510Z,29.30
2018-11-27T10:05:13.228Z,30.17
2018-11-27T10:07:40.737Z,28.27
2018-11-27T10:10:08.981Z,30.70
2018-11-27T10:12:36.515Z,31.50
2018-11-27T10:15:04.419Z,28.60
2018-11-27T10:17:31.802Z,34.27
2018-11-27T10:19:59.197Z,25.90
2018-11-27T10:22:26.613Z,28.67
2018-11-27T10:24:54.064Z,32.20
2018-11-27T10:27:21.528Z,28.33
2018-11-27T10:29:48.904Z,28.80
2018-11-27T10:32:16.332Z,28.70
2018-11-27T10:34:44.150Z,36.80
2018-11-27T10:37:17.652Z,39.20
2018-11-27T10:39:45.062Z,28.80
2018-11-27T10:42:13.756Z,30.00
2018-11-27T10:44:39.912Z,32.37
2018-11-27T10:47:07.256Z,29.70
2018-11-27T10:49:34.602Z,31.10
2018-11-27T10:52:01.992Z,28.47
2018-11-27T10:54:29.321Z,27.90
2018-11-27T10:56:56.676Z,30.50
2018-11-27T10:59:24.204Z,29.20
2018-11-27T11:01:52.859Z,27.43
2018-11-27T11:04:20.227Z,29.80
2018-11-27T11:06:47.588Z,33.17
2018-11-27T11:09:14.934Z,32.30
2018-11-27T11:11:42.329Z,32.80
2018-11-27T11:14:09.702Z,31.30
2018-11-27T11:16:38.243Z,29.27
2018-11-27T11:19:06.195Z,33.37
2018-11-27T11:21:33.602Z,35.83
2018-11-27T11:24:01.003Z,36.30
2018-11-27T11:26:28.506Z,33.97
2018-11-27T11:28:55.906Z,32.87
2018-11-27T11:31:23.292Z,31.20
2018-11-27T11:33:50.672Z,34.20
2018-11-27T11:36:18.428Z,30.33
2018-11-27T11:38:45.919Z,32.03
2018-11-27T11:41:13.338Z,29.73
2018-11-27T11:43:40.804Z,33.50
2018-11-27T11:46:08.669Z,35.70
2018-11-27T11:48:36.044Z,39.83
2018-11-27T11:51:03.446Z,40.13
2018-11-27T11:53:30.927Z,39.20
2018-11-27T11:55:58.386Z,39.20
2018-11-27T11:58:25.780Z,40.37
2018-11-27T12:00:54.450Z,42.10
2018-11-27T12:03:21.943Z,35.80
2018-11-27T12:08:18.012Z,39.60
2018-11-27T12:10:45.991Z,35.77
2018-11-27T12:13:13.390Z,47.07
2018-11-27T12:15:40.783Z,35.43
2018-11-27T12:18:08.855Z,41.97
2018-11-27T12:20:36.293Z,38.63
2018-11-27T12:23:04.022Z,46.10
2018-11-27T12:25:31.509Z,36.17
2018-11-27T12:27:58.900Z,34.37
2018-11-27T12:30:28.132Z,40.23
2018-11-27T12:32:55.932Z,43.07
2018-11-27T12:35:23.817Z,42.47
2018-11-27T12:38:02.756Z,37.10
2018-11-27T12:40:30.240Z,38.10
2018-11-27T12:42:58.486Z,37.10
2018-11-27T12:45:28.784Z,38.13
2018-11-27T12:47:57.043Z,45.90
2018-11-27T12:50:25.101Z,39.60
2018-11-27T12:52:52.661Z,43.83
2018-11-27T12:55:21.084Z,43.47
2018-11-27T12:57:48.500Z,44.77
2018-11-27T13:00:16.408Z,42.70
2018-11-27T13:02:44.146Z,45.33
2018-11-27T13:05:13.207Z,39.77
2018-11-27T13:07:40.762Z,44.53
2018-11-27T13:10:10.096Z,39.87
2018-11-27T13:12:37.862Z,42.10
2018-11-27T13:15:05.912Z,49.97
2018-11-27T13:17:33.390Z,46.47
2018-11-27T13:20:01.340Z,44.40
2018-11-27T13:22:28.745Z,47.70
2018-11-27T13:24:56.146Z,50.33
2018-11-27T13:27:23.533Z,41.50
2018-11-27T13:29:50.917Z,41.03
2018-11-27T13:32:18.470Z,43.60
2018-11-27T13:34:50.257Z,43.17
2018-11-27T13:37:14.339Z,40.87
2018-11-27T13:39:41.723Z,44.27
2018-11-27T13:42:09.121Z,47.20
2018-11-27T13:44:36.701Z,50.87
2018-11-27T13:47:04.221Z,47.33
2018-11-27T13:49:31.657Z,43.27
2018-11-27T13:51:59.078Z,44.70
2018-11-27T13:54:26.476Z,39.77
2018-11-27T13:56:53.889Z,40.87
2018-11-27T13:59:21.184Z,43.50
2018-11-27T14:01:48.583Z,44.27
2018-11-27T14:04:15.936Z,44.70
2018-11-27T14:06:43.315Z,47.37
2018-11-27T14:09:10.810Z,48.83
2018-11-27T14:11:38.290Z,42.97
2018-11-27T14:14:06.373Z,45.30
2018-11-27T14:16:33.969Z,46.90
2018-11-27T14:19:01.300Z,39.47
2018-11-27T14:21:28.676Z,50.43
2018-11-27T14:23:56.041Z,39.87
2018-11-27T14:26:23.389Z,51.37
2018-11-27T14:28:50.727Z,45.17
2018-11-27T14:31:18.040Z,43.10
2018-11-27T14:33:45.359Z,48.50
2018-11-27T14:36:12.668Z,48.87
2018-11-27T14:38:40.019Z,48.00
2018-11-27T14:41:07.340Z,44.23
2018-11-27T14:43:34.795Z,43.77
2018-11-27T14:46:02.095Z,45.43
2018-11-27T14:48:29.504Z,46.47
2018-11-27T14:50:56.822Z,44.90
2018-11-27T14:53:24.256Z,42.07
2018-11-27T14:55:51.595Z,43.37
2018-11-27T14:58:18.964Z,38.50
2018-11-27T15:00:47.222Z,36.20
2018-11-27T15:03:14.609Z,44.60
2018-11-27T15:05:42.071Z,43.17
2018-11-27T15:08:10.394Z,45.10
2018-11-27T15:10:37.747Z,46.53
2018-11-27T15:13:05.533Z,45.23
2018-11-27T15:15:33.009Z,47.77
2018-11-27T15:18:00.387Z,45.17
2018-11-27T15:20:27.717Z,40.90
2018-11-27T15:22:55.086Z,48.73
2018-11-27T15:25:22.465Z,43.67
2018-11-27T15:27:49.954Z,44.20
2018-11-27T15:30:21.849Z,45.00
2018-11-27T15:32:49.584Z,38.97
2018-11-27T15:35:16.900Z,43.47
2018-11-27T15:37:44.319Z,43.80
2018-11-27T15:40:13.334Z,45.63
2018-11-27T15:42:40.757Z,40.73
2018-11-27T15:45:09.204Z,37.30
2018-11-27T15:47:36.792Z,40.57
2018-11-27T15:50:04.664Z,33.60
2018-11-27T15:52:31.976Z,39.00
2018-11-27T15:54:59.546Z,35.30
2018-11-27T15:57:27.169Z,42.67
2018-11-27T15:59:54.275Z,34.20
2018-11-27T16:02:21.772Z,39.60
2018-11-27T16:04:49.322Z,47.70
2018-11-27T16:07:16.722Z,39.70
2018-11-27T16:09:44.082Z,45.13
2018-11-27T16:12:11.389Z,38.33
2018-11-27T16:14:38.742Z,41.97
2018-11-27T16:17:06.119Z,44.23
2018-11-27T16:19:33.519Z,33.03
2018-11-27T16:22:00.908Z,40.07
2018-11-27T16:24:28.416Z,38.17
2018-11-27T16:26:55.757Z,36.40
2018-11-27T16:29:23.439Z,33.90
2018-11-27T16:31:50.849Z,38.70
2018-11-27T16:34:18.269Z,39.60
2018-11-27T16:36:45.616Z,36.37
2018-11-27T16:39:12.980Z,40.47
2018-11-27T16:41:40.350Z,37.33
2018-11-27T16:44:07.709Z,42.27
2018-11-27T16:46:35.070Z,39.60
2018-11-27T16:49:02.587Z,37.27
2018-11-27T16:51:30.129Z,39.83
2018-11-27T16:53:57.529Z,37.20
2018-11-27T16:56:24.905Z,39.10
2018-11-27T16:58:52.389Z,43.67
2018-11-27T17:01:19.987Z,41.87
2018-11-27T17:03:47.427Z,45.23
2018-11-27T17:06:14.856Z,41.40
2018-11-27T17:08:42.509Z,41.23
2018-11-27T17:11:10.890Z,44.13
2018-11-27T17:13:38.509Z,42.27
2018-11-27T17:16:06.756Z,41.67
2018-11-27T17:18:34.293Z,39.63
2018-11-27T17:21:02.203Z,44.33
2018-11-27T17:23:29.686Z,48.37
2018-11-27T17:26:03.854Z,47.03
2018-11-27T17:28:27.228Z,47.07
2018-11-27T17:30:55.650Z,50.60
2018-11-27T17:33:27.404Z,45.20
2018-11-27T17:35:54.840Z,48.17
2018-11-27T17:38:22.824Z,49.50
2018-11-27T17:40:50.591Z,46.97
2018-11-27T17:43:18.168Z,43.47
2018-11-27T17:45:46.516Z,45.87
2018-11-27T17:48:13.992Z,46.77
2018-11-27T17:50:41.471Z,38.50
2018-11-27T17:53:08.867Z,42.77
2018-11-27T17:55:36.276Z,38.70
2018-11-27T17:58:03.662Z,40.47
2018-11-27T18:00:31.139Z,35.63
2018-11-27T18:03:01.251Z,41.87
2018-11-27T18:05:28.625Z,34.03
2018-11-27T18:07:56.019Z,36.10
2018-11-27T18:10:23.501Z,34.90
2018-11-27T18:12:50.991Z,39.30
2018-11-27T18:15:19.891Z,37.70
2018-11-27T18:17:47.329Z,33.47
2018-11-27T18:20:14.904Z,34.53
2018-11-27T18:22:42.330Z,33.60
2018-11-27T18:25:10.449Z,37.57
2018-11-27T18:27:37.837Z,37.33
2018-11-27T18:30:07.653Z,33.00
2018-11-27T18:32:35.174Z,40.10
2018-11-27T18:35:02.663Z,43.60
2018-11-27T18:37:30.046Z,42.37
2018-11-27T18:39:57.495Z,47.47
2018-11-27T18:42:24.946Z,42.80
2018-11-27T18:44:52.419Z,48.13
2018-11-27T18:47:19.952Z,46.47
2018-11-27T18:49:47.326Z,44.13
2018-11-27T18:52:14.768Z,45.07
2018-11-27T18:54:42.143Z,46.07
2018-11-27T18:57:09.533Z,41.87
2018-11-27T18:59:36.887Z,43.53
2018-11-27T19:02:04.765Z,44.43
2018-11-27T19:04:32.100Z,43.80
2018-11-27T19:06:59.613Z,46.63
2018-11-27T19:09:26.968Z,45.13
2018-11-27T19:11:54.407Z,46.57
2018-11-27T19:14:21.747Z,41.37
2018-11-27T19:16:49.150Z,42.33
2018-11-27T19:19:16.568Z,39.23
2018-11-27T19:21:43.997Z,39.70
2018-11-27T19:24:11.364Z,39.80
2018-11-27T19:26:38.732Z,45.70
2018-11-27T19:29:06.245Z,41.23
2018-11-27T19:31:33.648Z,45.27
2018-11-27T19:34:01.390Z,45.90
2018-11-27T19:36:28.906Z,37.80
2018-11-27T19:38:56.472Z,43.30
2018-11-27T19:41:23.930Z,42.40
2018-11-27T19:43:51.681Z,40.43
2018-11-27T19:46:19.196Z,39.90
2018-11-27T19:48:46.688Z,50.60
2018-11-27T19:51:14.157Z,40.37
2018-11-27T19:53:41.639Z,45.20
2018-11-27T19:56:09.073Z,48.87
2018-11-27T19:58:36.940Z,49.63
2018-11-27T20:01:04.578Z,46.23
2018-11-27T20:03:32.029Z,51.97
2018-11-27T20:05:59.428Z,49.87
2018-11-27T20:08:26.963Z,46.67
2018-11-27T20:10:54.384Z,54.87
2018-11-27T20:13:21.948Z,54.60
2018-11-27T20:15:49.449Z,46.50
2018-11-27T20:18:16.951Z,52.10
2018-11-27T20:20:44.404Z,54.90
2018-11-27T20:23:11.994Z,48.20
2018-11-27T20:25:39.801Z,52.00
2018-11-27T20:28:08.165Z,55.07
2018-11-27T20:30:36.134Z,48.00
2018-11-27T20:33:03.795Z,55.30
2018-11-27T20:35:31.852Z,56.73
2018-11-27T20:38:02.593Z,49.63
2018-11-27T20:40:30.154Z,58.13
2018-11-27T20:42:57.735Z,55.33
2018-11-27T20:45:26.099Z,52.20
2018-11-27T20:47:57.557Z,61.70
2018-11-27T20:50:25.280Z,52.00
2018-11-27T20:52:52.948Z,54.27
2018-11-27T20:55:20.753Z,48.73
2018-11-27T20:57:49.417Z,59.57
2018-11-27T21:00:19.023Z,53.40
2018-11-27T21:02:47.062Z,52.50
2018-11-27T21:05:15.053Z,53.13
2018-11-27T21:07:42.769Z,49.67
2018-11-27T21:10:11.000Z,50.67
2018-11-27T21:12:38.690Z,50.20
2018-11-27T21:15:07.871Z,59.20
2018-11-27T21:17:35.417Z,47.83
2018-11-27T21:20:03.081Z,52.00
2018-11-27T21:22:30.474Z,49.93
2018-11-27T21:24:57.932Z,44.93
2018-11-27T21:27:25.300Z,56.40
2018-11-27T21:29:53.072Z,42.77
2018-11-27T21:32:20.483Z,48.40
2018-11-27T21:34:47.829Z,46.00
2018-11-27T21:37:15.632Z,47.67
2018-11-27T21:39:43.002Z,47.03
2018-11-27T21:42:10.318Z,44.97
2018-11-27T21:44:38.085Z,50.07
2018-11-27T21:47:05.707Z,48.13
2018-11-27T21:49:33.317Z,45.77
2018-11-27T21:52:00.722Z,45.70
2018-11-27T21:54:28.187Z,42.33
2018-11-27T21:56:55.536Z,46.27
2018-11-27T21:59:23.030Z,43.63
2018-11-27T22:01:50.689Z,44.63
2018-11-27T22:04:18.166Z,45.73
2018-11-27T22:06:45.658Z,35.60
2018-11-27T22:09:13.388Z,44.13
2018-11-27T22:11:40.778Z,36.53
2018-11-27T22:14:08.214Z,37.60
2018-11-27T22:16:36.458Z,35.33
2018-11-27T22:19:04.017Z,38.87
2018-11-27T22:21:31.741Z,38.10
2018-11-27T22:23:59.384Z,40.97
2018-11-27T22:26:27.061Z,35.17
2018-11-27T22:28:54.714Z,37.07
2018-11-27T22:31:22.439Z,38.67
2018-11-27T22:33:49.953Z,36.30
2018-11-27T22:36:17.465Z,38.07
2018-11-27T22:38:44.939Z,34.27
2018-11-27T22:41:12.766Z,38.07
2018-11-27T22:43:40.328Z,38.90
2018-11-27T22:46:08.011Z,39.23
2018-11-27T22:48:35.681Z,42.37
2018-11-27T22:51:03.373Z,34.80
2018-11-27T22:53:31.113Z,30.70
2018-11-27T22:55:58.706Z,38.90
2018-11-27T22:58:26.366Z,42.90
2018-11-27T23:00:53.820Z,40.07
2018-11-27T23:03:21.156Z,39.73
2018-11-27T23:05:48.588Z,36.73
2018-11-27T23:08:16.420Z,41.13
2018-11-27T23:10:44.429Z,37.80
2018-11-27T23:13:11.830Z,40.93
2018-11-27T23:15:39.255Z,33.43
2018-11-27T23:18:06.706Z,34.67
2018-11-27T23:20:34.162Z,35.67
2018-11-27T23:23:02.449Z,43.67
2018-11-27T23:25:29.874Z,41.20
2018-11-27T23:27:57.350Z,39.73
2018-11-27T23:30:25.766Z,37.30
2018-11-27T23:32:53.242Z,35.90
2018-11-27T23:35:20.617Z,34.70
2018-11-27T23:37:48.085Z,35.77
2018-11-27T23:40:20.448Z,37.63
2018-11-27T23:42:48.078Z,32.30
2018-11-27T23:45:17.961Z,37.47
2018-11-27T23:47:45.762Z,35.83
2018-11-27T23:50:14.084Z,37.80
2018-11-27T23:52:41.598Z,35.30
2018-11-27T23:55:10.087Z,33.07
2018-11-27T23:57:37.697Z,30.03
